<?xml version="1.0" encoding="UTF-8" standalone="no" ?>
<gpx xmlns="http://www.topografix.com/GPX/1/1" xmlns:xsi="http://www.w3.org/2001/XMLSchema-instance" xsi:schemaLocation="http://www.topografix.com/GPX/1/1 http://www.topografix.com/GPX/1/1/gpx.xsd" version="1.1" creator="VisuGPX - https://www.visugpx.com">
  <metadata>
    <name>Sortie du 01-11-2016</name>
    <desc><![CDATA[http://www.visugpx.com/H1Fy0WtMqm]]></desc>
  </metadata>
  <trk>
    <name><![CDATA[Rte£ Bgc Peymilou Les Lèches Vallereuil Lagudal 74+791]]></name>
    <trkseg>
      <trkpt lat="44.86116" lon="0.46574">
        <ele>33.3</ele>
        <time>2016-10-31T07:30:00Z</time>
      </trkpt>
      <trkpt lat="44.86232" lon="0.46488">
        <ele>32.9</ele>
        <time>2016-10-31T07:30:26Z</time>
      </trkpt>
      <trkpt lat="44.86237" lon="0.46218">
        <ele>32.9</ele>
        <time>2016-10-31T07:31:04Z</time>
      </trkpt>
      <trkpt lat="44.86214" lon="0.45948">
        <ele>36.7</ele>
        <time>2016-10-31T07:31:43Z</time>
      </trkpt>
      <trkpt lat="44.8618" lon="0.457">
        <ele>33.5</ele>
        <time>2016-10-31T07:32:18Z</time>
      </trkpt>
      <trkpt lat="44.86106" lon="0.45564">
        <ele>29.9</ele>
        <time>2016-10-31T07:32:43Z</time>
      </trkpt>
      <trkpt lat="44.8602" lon="0.45388">
        <ele>32.5</ele>
        <time>2016-10-31T07:33:13Z</time>
      </trkpt>
      <trkpt lat="44.86055" lon="0.45271">
        <ele>32</ele>
        <time>2016-10-31T07:33:31Z</time>
      </trkpt>
      <trkpt lat="44.86148" lon="0.45083">
        <ele>32</ele>
        <time>2016-10-31T07:34:04Z</time>
      </trkpt>
      <trkpt lat="44.86165" lon="0.45092">
        <ele>32</ele>
        <time>2016-10-31T07:34:07Z</time>
      </trkpt>
      <trkpt lat="44.86187" lon="0.45084">
        <ele>32.5</ele>
        <time>2016-10-31T07:34:12Z</time>
      </trkpt>
      <trkpt lat="44.86189" lon="0.45047">
        <ele>32.4</ele>
        <time>2016-10-31T07:34:17Z</time>
      </trkpt>
      <trkpt lat="44.86167" lon="0.4503">
        <ele>32</ele>
        <time>2016-10-31T07:34:22Z</time>
      </trkpt>
      <trkpt lat="44.86269" lon="0.44808">
        <ele>33.8</ele>
        <time>2016-10-31T07:35:00Z</time>
      </trkpt>
      <trkpt lat="44.8633" lon="0.44581">
        <ele>35.8</ele>
        <time>2016-10-31T07:35:34Z</time>
      </trkpt>
      <trkpt lat="44.86358" lon="0.44359">
        <ele>36.6</ele>
        <time>2016-10-31T07:36:06Z</time>
      </trkpt>
      <trkpt lat="44.86387" lon="0.44247">
        <ele>36</ele>
        <time>2016-10-31T07:36:23Z</time>
      </trkpt>
      <trkpt lat="44.86397" lon="0.44193">
        <ele>36.7</ele>
        <time>2016-10-31T07:36:31Z</time>
      </trkpt>
      <trkpt lat="44.86511" lon="0.4405">
        <ele>43.5</ele>
        <time>2016-10-31T07:37:01Z</time>
      </trkpt>
      <trkpt lat="44.86606" lon="0.44005">
        <ele>47</ele>
        <time>2016-10-31T07:37:21Z</time>
      </trkpt>
      <trkpt lat="44.86666" lon="0.43999">
        <ele>48.1</ele>
        <time>2016-10-31T07:37:33Z</time>
      </trkpt>
      <trkpt lat="44.86783" lon="0.43934">
        <ele>53.6</ele>
        <time>2016-10-31T07:37:59Z</time>
      </trkpt>
      <trkpt lat="44.86871" lon="0.43872">
        <ele>54</ele>
        <time>2016-10-31T07:38:18Z</time>
      </trkpt>
      <trkpt lat="44.86907" lon="0.43746">
        <ele>49.9</ele>
        <time>2016-10-31T07:38:38Z</time>
      </trkpt>
      <trkpt lat="44.8698" lon="0.43541">
        <ele>53.7</ele>
        <time>2016-10-31T07:39:10Z</time>
      </trkpt>
      <trkpt lat="44.87027" lon="0.43464">
        <ele>55.4</ele>
        <time>2016-10-31T07:39:25Z</time>
      </trkpt>
      <trkpt lat="44.87075" lon="0.43439">
        <ele>58.3</ele>
        <time>2016-10-31T07:39:35Z</time>
      </trkpt>
      <trkpt lat="44.87075" lon="0.43289">
        <ele>61.6</ele>
        <time>2016-10-31T07:39:56Z</time>
      </trkpt>
      <trkpt lat="44.87141" lon="0.43141">
        <ele>65.6</ele>
        <time>2016-10-31T07:40:21Z</time>
      </trkpt>
      <trkpt lat="44.87165" lon="0.43061">
        <ele>67.7</ele>
        <time>2016-10-31T07:40:33Z</time>
      </trkpt>
      <trkpt lat="44.87203" lon="0.42884">
        <ele>69.2</ele>
        <time>2016-10-31T07:40:59Z</time>
      </trkpt>
      <trkpt lat="44.87253" lon="0.42792">
        <ele>70.1</ele>
        <time>2016-10-31T07:41:16Z</time>
      </trkpt>
      <trkpt lat="44.87356" lon="0.42636">
        <ele>70.8</ele>
        <time>2016-10-31T07:41:46Z</time>
      </trkpt>
      <trkpt lat="44.8749" lon="0.42491">
        <ele>75.1</ele>
        <time>2016-10-31T07:42:20Z</time>
      </trkpt>
      <trkpt lat="44.87606" lon="0.42415">
        <ele>76.6</ele>
        <time>2016-10-31T07:42:45Z</time>
      </trkpt>
      <trkpt lat="44.87738" lon="0.42184">
        <ele>82.6</ele>
        <time>2016-10-31T07:43:28Z</time>
      </trkpt>
      <trkpt lat="44.87853" lon="0.42099">
        <ele>84.7</ele>
        <time>2016-10-31T07:43:53Z</time>
      </trkpt>
      <trkpt lat="44.87942" lon="0.42011">
        <ele>86.1</ele>
        <time>2016-10-31T07:44:15Z</time>
      </trkpt>
      <trkpt lat="44.88039" lon="0.41886">
        <ele>91.1</ele>
        <time>2016-10-31T07:44:41Z</time>
      </trkpt>
      <trkpt lat="44.88254" lon="0.4161">
        <ele>98.1</ele>
        <time>2016-10-31T07:45:40Z</time>
      </trkpt>
      <trkpt lat="44.88337" lon="0.4152">
        <ele>99.1</ele>
        <time>2016-10-31T07:46:01Z</time>
      </trkpt>
      <trkpt lat="44.88373" lon="0.41437">
        <ele>101.1</ele>
        <time>2016-10-31T07:46:14Z</time>
      </trkpt>
      <trkpt lat="44.88418" lon="0.41247">
        <ele>104.1</ele>
        <time>2016-10-31T07:46:43Z</time>
      </trkpt>
      <trkpt lat="44.8851" lon="0.41073">
        <ele>106.5</ele>
        <time>2016-10-31T07:47:14Z</time>
      </trkpt>
      <trkpt lat="44.88575" lon="0.4082">
        <ele>107.6</ele>
        <time>2016-10-31T07:47:52Z</time>
      </trkpt>
      <trkpt lat="44.88683" lon="0.40514">
        <ele>113.9</ele>
        <time>2016-10-31T07:48:40Z</time>
      </trkpt>
      <trkpt lat="44.88775" lon="0.40302">
        <ele>114.5</ele>
        <time>2016-10-31T07:49:15Z</time>
      </trkpt>
      <trkpt lat="44.88865" lon="0.4016">
        <ele>113.1</ele>
        <time>2016-10-31T07:49:42Z</time>
      </trkpt>
      <trkpt lat="44.89057" lon="0.39924">
        <ele>102.9</ele>
        <time>2016-10-31T07:50:33Z</time>
      </trkpt>
      <trkpt lat="44.89151" lon="0.39392">
        <ele>86.2</ele>
        <time>2016-10-31T07:51:51Z</time>
      </trkpt>
      <trkpt lat="44.89378" lon="0.3893">
        <ele>78.9</ele>
        <time>2016-10-31T07:53:11Z</time>
      </trkpt>
      <trkpt lat="44.8974" lon="0.38379">
        <ele>46.4</ele>
        <time>2016-10-31T07:54:57Z</time>
      </trkpt>
      <trkpt lat="44.898" lon="0.38509">
        <ele>47</ele>
        <time>2016-10-31T07:55:20Z</time>
      </trkpt>
      <trkpt lat="44.89849" lon="0.38605">
        <ele>50</ele>
        <time>2016-10-31T07:55:36Z</time>
      </trkpt>
      <trkpt lat="44.89874" lon="0.387">
        <ele>55.2</ele>
        <time>2016-10-31T07:55:51Z</time>
      </trkpt>
      <trkpt lat="44.90002" lon="0.38829">
        <ele>54</ele>
        <time>2016-10-31T07:56:22Z</time>
      </trkpt>
      <trkpt lat="44.90035" lon="0.38933">
        <ele>53.9</ele>
        <time>2016-10-31T07:56:38Z</time>
      </trkpt>
      <trkpt lat="44.90078" lon="0.39018">
        <ele>56</ele>
        <time>2016-10-31T07:56:53Z</time>
      </trkpt>
      <trkpt lat="44.90102" lon="0.39141">
        <ele>56.8</ele>
        <time>2016-10-31T07:57:11Z</time>
      </trkpt>
      <trkpt lat="44.90182" lon="0.39262">
        <ele>55.7</ele>
        <time>2016-10-31T07:57:35Z</time>
      </trkpt>
      <trkpt lat="44.90362" lon="0.39405">
        <ele>53.4</ele>
        <time>2016-10-31T07:58:16Z</time>
      </trkpt>
      <trkpt lat="44.9044" lon="0.39421">
        <ele>48.7</ele>
        <time>2016-10-31T07:58:32Z</time>
      </trkpt>
      <trkpt lat="44.90507" lon="0.3948">
        <ele>45.7</ele>
        <time>2016-10-31T07:58:47Z</time>
      </trkpt>
      <trkpt lat="44.90571" lon="0.39599">
        <ele>47.4</ele>
        <time>2016-10-31T07:59:09Z</time>
      </trkpt>
      <trkpt lat="44.90674" lon="0.39701">
        <ele>50</ele>
        <time>2016-10-31T07:59:34Z</time>
      </trkpt>
      <trkpt lat="44.90827" lon="0.39912">
        <ele>55.1</ele>
        <time>2016-10-31T08:00:17Z</time>
      </trkpt>
      <trkpt lat="44.90914" lon="0.39984">
        <ele>56.2</ele>
        <time>2016-10-31T08:00:37Z</time>
      </trkpt>
      <trkpt lat="44.90987" lon="0.39966">
        <ele>53.8</ele>
        <time>2016-10-31T08:00:52Z</time>
      </trkpt>
      <trkpt lat="44.91073" lon="0.39975">
        <ele>55.6</ele>
        <time>2016-10-31T08:01:09Z</time>
      </trkpt>
      <trkpt lat="44.91255" lon="0.4009">
        <ele>57.1</ele>
        <time>2016-10-31T08:01:49Z</time>
      </trkpt>
      <trkpt lat="44.91442" lon="0.40083">
        <ele>53.5</ele>
        <time>2016-10-31T08:02:26Z</time>
      </trkpt>
      <trkpt lat="44.91488" lon="0.40174">
        <ele>49</ele>
        <time>2016-10-31T08:02:42Z</time>
      </trkpt>
      <trkpt lat="44.91579" lon="0.40249">
        <ele>46.2</ele>
        <time>2016-10-31T08:03:03Z</time>
      </trkpt>
      <trkpt lat="44.91629" lon="0.4043">
        <ele>48.9</ele>
        <time>2016-10-31T08:03:31Z</time>
      </trkpt>
      <trkpt lat="44.91648" lon="0.40408">
        <ele>48.8</ele>
        <time>2016-10-31T08:03:36Z</time>
      </trkpt>
      <trkpt lat="44.91655" lon="0.40398">
        <ele>48.9</ele>
        <time>2016-10-31T08:03:38Z</time>
      </trkpt>
      <trkpt lat="44.91657" lon="0.40394">
        <ele>48.9</ele>
        <time>2016-10-31T08:03:38Z</time>
      </trkpt>
      <trkpt lat="44.91734" lon="0.40317">
        <ele>47.7</ele>
        <time>2016-10-31T08:03:57Z</time>
      </trkpt>
      <trkpt lat="44.91998" lon="0.40272">
        <ele>52</ele>
        <time>2016-10-31T08:04:50Z</time>
      </trkpt>
      <trkpt lat="44.92032" lon="0.40164">
        <ele>54</ele>
        <time>2016-10-31T08:05:07Z</time>
      </trkpt>
      <trkpt lat="44.92102" lon="0.40204">
        <ele>50.9</ele>
        <time>2016-10-31T08:05:22Z</time>
      </trkpt>
      <trkpt lat="44.92342" lon="0.40169">
        <ele>62.9</ele>
        <time>2016-10-31T08:06:11Z</time>
      </trkpt>
      <trkpt lat="44.92443" lon="0.40166">
        <ele>63.4</ele>
        <time>2016-10-31T08:06:31Z</time>
      </trkpt>
      <trkpt lat="44.92616" lon="0.40205">
        <ele>63.1</ele>
        <time>2016-10-31T08:07:06Z</time>
      </trkpt>
      <trkpt lat="44.92767" lon="0.40322">
        <ele>64.4</ele>
        <time>2016-10-31T08:07:40Z</time>
      </trkpt>
      <trkpt lat="44.92819" lon="0.40339">
        <ele>65.8</ele>
        <time>2016-10-31T08:07:51Z</time>
      </trkpt>
      <trkpt lat="44.92897" lon="0.40394">
        <ele>60.5</ele>
        <time>2016-10-31T08:08:09Z</time>
      </trkpt>
      <trkpt lat="44.92978" lon="0.40422">
        <ele>58.6</ele>
        <time>2016-10-31T08:08:25Z</time>
      </trkpt>
      <trkpt lat="44.93052" lon="0.40425">
        <ele>57.9</ele>
        <time>2016-10-31T08:08:40Z</time>
      </trkpt>
      <trkpt lat="44.93175" lon="0.4031">
        <ele>65.6</ele>
        <time>2016-10-31T08:09:10Z</time>
      </trkpt>
      <trkpt lat="44.93223" lon="0.40304">
        <ele>68.4</ele>
        <time>2016-10-31T08:09:19Z</time>
      </trkpt>
      <trkpt lat="44.93358" lon="0.40319">
        <ele>67.8</ele>
        <time>2016-10-31T08:09:46Z</time>
      </trkpt>
      <trkpt lat="44.93431" lon="0.40361">
        <ele>64.4</ele>
        <time>2016-10-31T08:10:02Z</time>
      </trkpt>
      <trkpt lat="44.93484" lon="0.4036">
        <ele>63.3</ele>
        <time>2016-10-31T08:10:13Z</time>
      </trkpt>
      <trkpt lat="44.93515" lon="0.40321">
        <ele>63</ele>
        <time>2016-10-31T08:10:21Z</time>
      </trkpt>
      <trkpt lat="44.93546" lon="0.40265">
        <ele>65.9</ele>
        <time>2016-10-31T08:10:31Z</time>
      </trkpt>
      <trkpt lat="44.93599" lon="0.40256">
        <ele>68.4</ele>
        <time>2016-10-31T08:10:42Z</time>
      </trkpt>
      <trkpt lat="44.93661" lon="0.4027">
        <ele>69.9</ele>
        <time>2016-10-31T08:10:54Z</time>
      </trkpt>
      <trkpt lat="44.93729" lon="0.40329">
        <ele>67.3</ele>
        <time>2016-10-31T08:11:10Z</time>
      </trkpt>
      <trkpt lat="44.93934" lon="0.40332">
        <ele>64.1</ele>
        <time>2016-10-31T08:11:51Z</time>
      </trkpt>
      <trkpt lat="44.93973" lon="0.4031">
        <ele>66.3</ele>
        <time>2016-10-31T08:12:00Z</time>
      </trkpt>
      <trkpt lat="44.94015" lon="0.4025">
        <ele>67.1</ele>
        <time>2016-10-31T08:12:12Z</time>
      </trkpt>
      <trkpt lat="44.94109" lon="0.39845">
        <ele>76.9</ele>
        <time>2016-10-31T08:13:12Z</time>
      </trkpt>
      <trkpt lat="44.9417" lon="0.39684">
        <ele>80.3</ele>
        <time>2016-10-31T08:13:38Z</time>
      </trkpt>
      <trkpt lat="44.9418" lon="0.39587">
        <ele>80.2</ele>
        <time>2016-10-31T08:13:52Z</time>
      </trkpt>
      <trkpt lat="44.94254" lon="0.39511">
        <ele>78.5</ele>
        <time>2016-10-31T08:14:10Z</time>
      </trkpt>
      <trkpt lat="44.94271" lon="0.39453">
        <ele>80.1</ele>
        <time>2016-10-31T08:14:19Z</time>
      </trkpt>
      <trkpt lat="44.94378" lon="0.39344">
        <ele>82.2</ele>
        <time>2016-10-31T08:14:45Z</time>
      </trkpt>
      <trkpt lat="44.94398" lon="0.39276">
        <ele>82.2</ele>
        <time>2016-10-31T08:14:56Z</time>
      </trkpt>
      <trkpt lat="44.94401" lon="0.39195">
        <ele>79.5</ele>
        <time>2016-10-31T08:15:07Z</time>
      </trkpt>
      <trkpt lat="44.9439" lon="0.39139">
        <ele>79.6</ele>
        <time>2016-10-31T08:15:15Z</time>
      </trkpt>
      <trkpt lat="44.94441" lon="0.39019">
        <ele>85.7</ele>
        <time>2016-10-31T08:15:35Z</time>
      </trkpt>
      <trkpt lat="44.94444" lon="0.38908">
        <ele>89.3</ele>
        <time>2016-10-31T08:15:51Z</time>
      </trkpt>
      <trkpt lat="44.94461" lon="0.38823">
        <ele>90.5</ele>
        <time>2016-10-31T08:16:03Z</time>
      </trkpt>
      <trkpt lat="44.94464" lon="0.38774">
        <ele>92.3</ele>
        <time>2016-10-31T08:16:10Z</time>
      </trkpt>
      <trkpt lat="44.94488" lon="0.3868">
        <ele>95.7</ele>
        <time>2016-10-31T08:16:25Z</time>
      </trkpt>
      <trkpt lat="44.94537" lon="0.38573">
        <ele>102.8</ele>
        <time>2016-10-31T08:16:43Z</time>
      </trkpt>
      <trkpt lat="44.94554" lon="0.38501">
        <ele>104.4</ele>
        <time>2016-10-31T08:16:53Z</time>
      </trkpt>
      <trkpt lat="44.94563" lon="0.38426">
        <ele>103.3</ele>
        <time>2016-10-31T08:17:04Z</time>
      </trkpt>
      <trkpt lat="44.94597" lon="0.38397">
        <ele>103.5</ele>
        <time>2016-10-31T08:17:12Z</time>
      </trkpt>
      <trkpt lat="44.94652" lon="0.38383">
        <ele>104.4</ele>
        <time>2016-10-31T08:17:23Z</time>
      </trkpt>
      <trkpt lat="44.94706" lon="0.384">
        <ele>106.7</ele>
        <time>2016-10-31T08:17:34Z</time>
      </trkpt>
      <trkpt lat="44.94737" lon="0.38464">
        <ele>109.4</ele>
        <time>2016-10-31T08:17:45Z</time>
      </trkpt>
      <trkpt lat="44.94769" lon="0.38458">
        <ele>110.1</ele>
        <time>2016-10-31T08:17:52Z</time>
      </trkpt>
      <trkpt lat="44.94875" lon="0.3837">
        <ele>115.3</ele>
        <time>2016-10-31T08:18:17Z</time>
      </trkpt>
      <trkpt lat="44.95021" lon="0.38305">
        <ele>122.5</ele>
        <time>2016-10-31T08:18:47Z</time>
      </trkpt>
      <trkpt lat="44.9509" lon="0.38239">
        <ele>120.9</ele>
        <time>2016-10-31T08:19:04Z</time>
      </trkpt>
      <trkpt lat="44.95243" lon="0.38245">
        <ele>126.6</ele>
        <time>2016-10-31T08:19:35Z</time>
      </trkpt>
      <trkpt lat="44.95315" lon="0.38237">
        <ele>124.6</ele>
        <time>2016-10-31T08:19:49Z</time>
      </trkpt>
      <trkpt lat="44.95399" lon="0.38263">
        <ele>120.7</ele>
        <time>2016-10-31T08:20:06Z</time>
      </trkpt>
      <trkpt lat="44.95435" lon="0.38237">
        <ele>120.2</ele>
        <time>2016-10-31T08:20:14Z</time>
      </trkpt>
      <trkpt lat="44.95508" lon="0.38141">
        <ele>120.4</ele>
        <time>2016-10-31T08:20:34Z</time>
      </trkpt>
      <trkpt lat="44.95591" lon="0.38084">
        <ele>119.7</ele>
        <time>2016-10-31T08:20:53Z</time>
      </trkpt>
      <trkpt lat="44.95611" lon="0.3804">
        <ele>120.9</ele>
        <time>2016-10-31T08:21:00Z</time>
      </trkpt>
      <trkpt lat="44.95638" lon="0.37898">
        <ele>123.6</ele>
        <time>2016-10-31T08:21:21Z</time>
      </trkpt>
      <trkpt lat="44.95689" lon="0.37699">
        <ele>126.3</ele>
        <time>2016-10-31T08:21:51Z</time>
      </trkpt>
      <trkpt lat="44.9572" lon="0.37666">
        <ele>126</ele>
        <time>2016-10-31T08:21:59Z</time>
      </trkpt>
      <trkpt lat="44.95822" lon="0.37648">
        <ele>125.1</ele>
        <time>2016-10-31T08:22:19Z</time>
      </trkpt>
      <trkpt lat="44.95921" lon="0.37607">
        <ele>127.6</ele>
        <time>2016-10-31T08:22:40Z</time>
      </trkpt>
      <trkpt lat="44.96059" lon="0.37531">
        <ele>128.5</ele>
        <time>2016-10-31T08:23:09Z</time>
      </trkpt>
      <trkpt lat="44.96179" lon="0.37443">
        <ele>131.3</ele>
        <time>2016-10-31T08:23:36Z</time>
      </trkpt>
      <trkpt lat="44.96393" lon="0.37658">
        <ele>130.9</ele>
        <time>2016-10-31T08:24:29Z</time>
      </trkpt>
      <trkpt lat="44.96457" lon="0.37679">
        <ele>127.9</ele>
        <time>2016-10-31T08:24:42Z</time>
      </trkpt>
      <trkpt lat="44.966" lon="0.37987">
        <ele>127.5</ele>
        <time>2016-10-31T08:25:34Z</time>
      </trkpt>
      <trkpt lat="44.96646" lon="0.38014">
        <ele>129.2</ele>
        <time>2016-10-31T08:25:44Z</time>
      </trkpt>
      <trkpt lat="44.96739" lon="0.37988">
        <ele>126.8</ele>
        <time>2016-10-31T08:26:03Z</time>
      </trkpt>
      <trkpt lat="44.9689" lon="0.3801">
        <ele>130.6</ele>
        <time>2016-10-31T08:26:34Z</time>
      </trkpt>
      <trkpt lat="44.96946" lon="0.37941">
        <ele>128.5</ele>
        <time>2016-10-31T08:26:49Z</time>
      </trkpt>
      <trkpt lat="44.97067" lon="0.37905">
        <ele>127.5</ele>
        <time>2016-10-31T08:27:13Z</time>
      </trkpt>
      <trkpt lat="44.97145" lon="0.37761">
        <ele>130.4</ele>
        <time>2016-10-31T08:27:39Z</time>
      </trkpt>
      <trkpt lat="44.97217" lon="0.37718">
        <ele>130.8</ele>
        <time>2016-10-31T08:27:55Z</time>
      </trkpt>
      <trkpt lat="44.97321" lon="0.37705">
        <ele>126.1</ele>
        <time>2016-10-31T08:28:16Z</time>
      </trkpt>
      <trkpt lat="44.97599" lon="0.37573">
        <ele>118.8</ele>
        <time>2016-10-31T08:29:14Z</time>
      </trkpt>
      <trkpt lat="44.97665" lon="0.37584">
        <ele>119.9</ele>
        <time>2016-10-31T08:29:28Z</time>
      </trkpt>
      <trkpt lat="44.97954" lon="0.37706">
        <ele>116.4</ele>
        <time>2016-10-31T08:30:28Z</time>
      </trkpt>
      <trkpt lat="44.97989" lon="0.37787">
        <ele>112.1</ele>
        <time>2016-10-31T08:30:41Z</time>
      </trkpt>
      <trkpt lat="44.98041" lon="0.3779">
        <ele>111.3</ele>
        <time>2016-10-31T08:30:52Z</time>
      </trkpt>
      <trkpt lat="44.98111" lon="0.37742">
        <ele>115</ele>
        <time>2016-10-31T08:31:07Z</time>
      </trkpt>
      <trkpt lat="44.98173" lon="0.37763">
        <ele>118.3</ele>
        <time>2016-10-31T08:31:20Z</time>
      </trkpt>
      <trkpt lat="44.98225" lon="0.37833">
        <ele>114.8</ele>
        <time>2016-10-31T08:31:35Z</time>
      </trkpt>
      <trkpt lat="44.98317" lon="0.37875">
        <ele>115.2</ele>
        <time>2016-10-31T08:31:54Z</time>
      </trkpt>
      <trkpt lat="44.98449" lon="0.37906">
        <ele>110.2</ele>
        <time>2016-10-31T08:32:21Z</time>
      </trkpt>
      <trkpt lat="44.98517" lon="0.37885">
        <ele>106.2</ele>
        <time>2016-10-31T08:32:35Z</time>
      </trkpt>
      <trkpt lat="44.98662" lon="0.37803">
        <ele>103.2</ele>
        <time>2016-10-31T08:33:06Z</time>
      </trkpt>
      <trkpt lat="44.98715" lon="0.378">
        <ele>100.2</ele>
        <time>2016-10-31T08:33:16Z</time>
      </trkpt>
      <trkpt lat="44.98764" lon="0.37845">
        <ele>95</ele>
        <time>2016-10-31T08:33:28Z</time>
      </trkpt>
      <trkpt lat="44.99008" lon="0.38303">
        <ele>96.7</ele>
        <time>2016-10-31T08:34:49Z</time>
      </trkpt>
      <trkpt lat="44.99056" lon="0.38235">
        <ele>99.2</ele>
        <time>2016-10-31T08:35:03Z</time>
      </trkpt>
      <trkpt lat="44.99109" lon="0.38125">
        <ele>95.2</ele>
        <time>2016-10-31T08:35:22Z</time>
      </trkpt>
      <trkpt lat="44.99177" lon="0.38074">
        <ele>96.8</ele>
        <time>2016-10-31T08:35:37Z</time>
      </trkpt>
      <trkpt lat="44.99194" lon="0.38061">
        <ele>98</ele>
        <time>2016-10-31T08:35:41Z</time>
      </trkpt>
      <trkpt lat="44.99183" lon="0.38062">
        <ele>97.1</ele>
        <time>2016-10-31T08:35:44Z</time>
      </trkpt>
      <trkpt lat="44.99187" lon="0.38044">
        <ele>97</ele>
        <time>2016-10-31T08:35:46Z</time>
      </trkpt>
      <trkpt lat="44.99266" lon="0.37772">
        <ele>96</ele>
        <time>2016-10-31T08:36:28Z</time>
      </trkpt>
      <trkpt lat="44.99268" lon="0.37716">
        <ele>93.9</ele>
        <time>2016-10-31T08:36:36Z</time>
      </trkpt>
      <trkpt lat="44.99281" lon="0.37685">
        <ele>92.9</ele>
        <time>2016-10-31T08:36:41Z</time>
      </trkpt>
      <trkpt lat="44.9933" lon="0.37638">
        <ele>93.4</ele>
        <time>2016-10-31T08:36:53Z</time>
      </trkpt>
      <trkpt lat="44.99385" lon="0.37533">
        <ele>90.8</ele>
        <time>2016-10-31T08:37:11Z</time>
      </trkpt>
      <trkpt lat="44.99438" lon="0.37483">
        <ele>91.6</ele>
        <time>2016-10-31T08:37:24Z</time>
      </trkpt>
      <trkpt lat="44.99492" lon="0.37372">
        <ele>88.4</ele>
        <time>2016-10-31T08:37:43Z</time>
      </trkpt>
      <trkpt lat="44.99548" lon="0.37291">
        <ele>88.8</ele>
        <time>2016-10-31T08:37:59Z</time>
      </trkpt>
      <trkpt lat="44.99539" lon="0.37239">
        <ele>83.5</ele>
        <time>2016-10-31T08:38:07Z</time>
      </trkpt>
      <trkpt lat="44.99492" lon="0.37052">
        <ele>76.9</ele>
        <time>2016-10-31T08:38:35Z</time>
      </trkpt>
      <trkpt lat="44.99475" lon="0.369">
        <ele>80.7</ele>
        <time>2016-10-31T08:38:56Z</time>
      </trkpt>
      <trkpt lat="44.99576" lon="0.36662">
        <ele>75.8</ele>
        <time>2016-10-31T08:39:36Z</time>
      </trkpt>
      <trkpt lat="44.99636" lon="0.3656">
        <ele>75.5</ele>
        <time>2016-10-31T08:39:54Z</time>
      </trkpt>
      <trkpt lat="44.99704" lon="0.3627">
        <ele>70.2</ele>
        <time>2016-10-31T08:40:38Z</time>
      </trkpt>
      <trkpt lat="44.99707" lon="0.36207">
        <ele>70.3</ele>
        <time>2016-10-31T08:40:47Z</time>
      </trkpt>
      <trkpt lat="44.99693" lon="0.36151">
        <ele>71.3</ele>
        <time>2016-10-31T08:40:55Z</time>
      </trkpt>
      <trkpt lat="44.99917" lon="0.36174">
        <ele>75.5</ele>
        <time>2016-10-31T08:41:40Z</time>
      </trkpt>
      <trkpt lat="44.99937" lon="0.36353">
        <ele>82.9</ele>
        <time>2016-10-31T08:42:06Z</time>
      </trkpt>
      <trkpt lat="44.99998" lon="0.36395">
        <ele>87.6</ele>
        <time>2016-10-31T08:42:19Z</time>
      </trkpt>
      <trkpt lat="45.00039" lon="0.36404">
        <ele>93.5</ele>
        <time>2016-10-31T08:42:28Z</time>
      </trkpt>
      <trkpt lat="45.00079" lon="0.36443">
        <ele>97.5</ele>
        <time>2016-10-31T08:42:37Z</time>
      </trkpt>
      <trkpt lat="45.00168" lon="0.36645">
        <ele>100.8</ele>
        <time>2016-10-31T08:43:11Z</time>
      </trkpt>
      <trkpt lat="45.00202" lon="0.36746">
        <ele>97.8</ele>
        <time>2016-10-31T08:43:27Z</time>
      </trkpt>
      <trkpt lat="45.00258" lon="0.36816">
        <ele>95.8</ele>
        <time>2016-10-31T08:43:42Z</time>
      </trkpt>
      <trkpt lat="45.00324" lon="0.36889">
        <ele>91.1</ele>
        <time>2016-10-31T08:43:59Z</time>
      </trkpt>
      <trkpt lat="45.0041" lon="0.36955">
        <ele>92.3</ele>
        <time>2016-10-31T08:44:18Z</time>
      </trkpt>
      <trkpt lat="45.00461" lon="0.3702">
        <ele>91.9</ele>
        <time>2016-10-31T08:44:32Z</time>
      </trkpt>
      <trkpt lat="45.00539" lon="0.3713">
        <ele>100</ele>
        <time>2016-10-31T08:44:54Z</time>
      </trkpt>
      <trkpt lat="45.00638" lon="0.3733">
        <ele>110.9</ele>
        <time>2016-10-31T08:45:28Z</time>
      </trkpt>
      <trkpt lat="45.00662" lon="0.37446">
        <ele>106.7</ele>
        <time>2016-10-31T08:45:46Z</time>
      </trkpt>
      <trkpt lat="45.00667" lon="0.37524">
        <ele>103</ele>
        <time>2016-10-31T08:45:57Z</time>
      </trkpt>
      <trkpt lat="45.0048" lon="0.37592">
        <ele>93.6</ele>
        <time>2016-10-31T08:46:35Z</time>
      </trkpt>
      <trkpt lat="45.00467" lon="0.3756">
        <ele>92.4</ele>
        <time>2016-10-31T08:46:40Z</time>
      </trkpt>
      <trkpt lat="45.00443" lon="0.37554">
        <ele>91.4</ele>
        <time>2016-10-31T08:46:45Z</time>
      </trkpt>
      <trkpt lat="45.00255" lon="0.37574">
        <ele>100.8</ele>
        <time>2016-10-31T08:47:23Z</time>
      </trkpt>
      <trkpt lat="45.0016" lon="0.37582">
        <ele>105.5</ele>
        <time>2016-10-31T08:47:42Z</time>
      </trkpt>
      <trkpt lat="45.00154" lon="0.37591">
        <ele>105.8</ele>
        <time>2016-10-31T08:47:44Z</time>
      </trkpt>
      <trkpt lat="45.00154" lon="0.37597">
        <ele>105.9</ele>
        <time>2016-10-31T08:47:45Z</time>
      </trkpt>
      <trkpt lat="45.00137" lon="0.37747">
        <ele>107.9</ele>
        <time>2016-10-31T08:48:06Z</time>
      </trkpt>
      <trkpt lat="45.00156" lon="0.37874">
        <ele>104.4</ele>
        <time>2016-10-31T08:48:25Z</time>
      </trkpt>
      <trkpt lat="45.0022" lon="0.38024">
        <ele>101.2</ele>
        <time>2016-10-31T08:48:49Z</time>
      </trkpt>
      <trkpt lat="45.00239" lon="0.38268">
        <ele>105.3</ele>
        <time>2016-10-31T08:49:24Z</time>
      </trkpt>
      <trkpt lat="45.00317" lon="0.38405">
        <ele>108.4</ele>
        <time>2016-10-31T08:49:49Z</time>
      </trkpt>
      <trkpt lat="45.00428" lon="0.38425">
        <ele>115.5</ele>
        <time>2016-10-31T08:50:12Z</time>
      </trkpt>
      <trkpt lat="45.00487" lon="0.38472">
        <ele>120.7</ele>
        <time>2016-10-31T08:50:25Z</time>
      </trkpt>
      <trkpt lat="45.00539" lon="0.38773">
        <ele>114</ele>
        <time>2016-10-31T08:51:09Z</time>
      </trkpt>
      <trkpt lat="45.00627" lon="0.38937">
        <ele>108.3</ele>
        <time>2016-10-31T08:51:38Z</time>
      </trkpt>
      <trkpt lat="45.00679" lon="0.3907">
        <ele>120.4</ele>
        <time>2016-10-31T08:52:00Z</time>
      </trkpt>
      <trkpt lat="45.00797" lon="0.3906">
        <ele>121.7</ele>
        <time>2016-10-31T08:52:23Z</time>
      </trkpt>
      <trkpt lat="45.00816" lon="0.39091">
        <ele>122.4</ele>
        <time>2016-10-31T08:52:29Z</time>
      </trkpt>
      <trkpt lat="45.00775" lon="0.39264">
        <ele>126.7</ele>
        <time>2016-10-31T08:52:55Z</time>
      </trkpt>
      <trkpt lat="45.00778" lon="0.39378">
        <ele>124.2</ele>
        <time>2016-10-31T08:53:11Z</time>
      </trkpt>
      <trkpt lat="45.00811" lon="0.39431">
        <ele>121.7</ele>
        <time>2016-10-31T08:53:21Z</time>
      </trkpt>
      <trkpt lat="45.00887" lon="0.39435">
        <ele>117.3</ele>
        <time>2016-10-31T08:53:36Z</time>
      </trkpt>
      <trkpt lat="45.00924" lon="0.39505">
        <ele>114.6</ele>
        <time>2016-10-31T08:53:49Z</time>
      </trkpt>
      <trkpt lat="45.00967" lon="0.39645">
        <ele>109.1</ele>
        <time>2016-10-31T08:54:10Z</time>
      </trkpt>
      <trkpt lat="45.00998" lon="0.39773">
        <ele>108</ele>
        <time>2016-10-31T08:54:29Z</time>
      </trkpt>
      <trkpt lat="45.01035" lon="0.39831">
        <ele>103.5</ele>
        <time>2016-10-31T08:54:40Z</time>
      </trkpt>
      <trkpt lat="45.01044" lon="0.3982">
        <ele>103.8</ele>
        <time>2016-10-31T08:54:43Z</time>
      </trkpt>
      <trkpt lat="45.01079" lon="0.39814">
        <ele>102.8</ele>
        <time>2016-10-31T08:54:50Z</time>
      </trkpt>
      <trkpt lat="45.01141" lon="0.39784">
        <ele>101.6</ele>
        <time>2016-10-31T08:55:03Z</time>
      </trkpt>
      <trkpt lat="45.0116" lon="0.3976">
        <ele>101.9</ele>
        <time>2016-10-31T08:55:08Z</time>
      </trkpt>
      <trkpt lat="45.01191" lon="0.39681">
        <ele>102.7</ele>
        <time>2016-10-31T08:55:21Z</time>
      </trkpt>
      <trkpt lat="45.01212" lon="0.39675">
        <ele>102.1</ele>
        <time>2016-10-31T08:55:25Z</time>
      </trkpt>
      <trkpt lat="45.01253" lon="0.39678">
        <ele>100.4</ele>
        <time>2016-10-31T08:55:33Z</time>
      </trkpt>
      <trkpt lat="45.01395" lon="0.39713">
        <ele>90.1</ele>
        <time>2016-10-31T08:56:02Z</time>
      </trkpt>
      <trkpt lat="45.01473" lon="0.3977">
        <ele>76.5</ele>
        <time>2016-10-31T08:56:20Z</time>
      </trkpt>
      <trkpt lat="45.01502" lon="0.398">
        <ele>71.7</ele>
        <time>2016-10-31T08:56:27Z</time>
      </trkpt>
      <trkpt lat="45.01537" lon="0.39902">
        <ele>68.3</ele>
        <time>2016-10-31T08:56:43Z</time>
      </trkpt>
      <trkpt lat="45.0156" lon="0.39952">
        <ele>65.9</ele>
        <time>2016-10-31T08:56:51Z</time>
      </trkpt>
      <trkpt lat="45.01565" lon="0.39828">
        <ele>64.8</ele>
        <time>2016-10-31T08:57:09Z</time>
      </trkpt>
      <trkpt lat="45.0158" lon="0.39717">
        <ele>60.2</ele>
        <time>2016-10-31T08:57:25Z</time>
      </trkpt>
      <trkpt lat="45.01613" lon="0.39576">
        <ele>60.7</ele>
        <time>2016-10-31T08:57:46Z</time>
      </trkpt>
      <trkpt lat="45.01612" lon="0.39535">
        <ele>61.6</ele>
        <time>2016-10-31T08:57:52Z</time>
      </trkpt>
      <trkpt lat="45.01618" lon="0.39488">
        <ele>62</ele>
        <time>2016-10-31T08:57:59Z</time>
      </trkpt>
      <trkpt lat="45.01611" lon="0.39407">
        <ele>62.6</ele>
        <time>2016-10-31T08:58:10Z</time>
      </trkpt>
      <trkpt lat="45.01603" lon="0.3935">
        <ele>61.2</ele>
        <time>2016-10-31T08:58:18Z</time>
      </trkpt>
      <trkpt lat="45.01617" lon="0.39265">
        <ele>59.9</ele>
        <time>2016-10-31T08:58:31Z</time>
      </trkpt>
      <trkpt lat="45.01636" lon="0.39235">
        <ele>58.3</ele>
        <time>2016-10-31T08:58:36Z</time>
      </trkpt>
      <trkpt lat="45.0165" lon="0.39231">
        <ele>56.7</ele>
        <time>2016-10-31T08:58:39Z</time>
      </trkpt>
      <trkpt lat="45.01667" lon="0.39236">
        <ele>54.4</ele>
        <time>2016-10-31T08:58:43Z</time>
      </trkpt>
      <trkpt lat="45.01687" lon="0.39233">
        <ele>54.8</ele>
        <time>2016-10-31T08:58:47Z</time>
      </trkpt>
      <trkpt lat="45.01702" lon="0.39182">
        <ele>55.8</ele>
        <time>2016-10-31T08:58:55Z</time>
      </trkpt>
      <trkpt lat="45.01709" lon="0.39134">
        <ele>56.4</ele>
        <time>2016-10-31T08:59:02Z</time>
      </trkpt>
      <trkpt lat="45.01722" lon="0.39045">
        <ele>57.6</ele>
        <time>2016-10-31T08:59:14Z</time>
      </trkpt>
      <trkpt lat="45.01738" lon="0.39003">
        <ele>57.7</ele>
        <time>2016-10-31T08:59:21Z</time>
      </trkpt>
      <trkpt lat="45.01768" lon="0.38949">
        <ele>57.1</ele>
        <time>2016-10-31T08:59:31Z</time>
      </trkpt>
      <trkpt lat="45.01764" lon="0.38917">
        <ele>57</ele>
        <time>2016-10-31T08:59:35Z</time>
      </trkpt>
      <trkpt lat="45.01775" lon="0.38865">
        <ele>59</ele>
        <time>2016-10-31T08:59:43Z</time>
      </trkpt>
      <trkpt lat="45.01766" lon="0.38805">
        <ele>61.6</ele>
        <time>2016-10-31T08:59:52Z</time>
      </trkpt>
      <trkpt lat="45.01771" lon="0.38754">
        <ele>64.3</ele>
        <time>2016-10-31T08:59:59Z</time>
      </trkpt>
      <trkpt lat="45.01812" lon="0.38629">
        <ele>64.1</ele>
        <time>2016-10-31T09:00:19Z</time>
      </trkpt>
      <trkpt lat="45.01956" lon="0.38279">
        <ele>62.7</ele>
        <time>2016-10-31T09:01:16Z</time>
      </trkpt>
      <trkpt lat="45.02035" lon="0.38085">
        <ele>64.7</ele>
        <time>2016-10-31T09:01:48Z</time>
      </trkpt>
      <trkpt lat="45.02058" lon="0.38068">
        <ele>63.8</ele>
        <time>2016-10-31T09:01:53Z</time>
      </trkpt>
      <trkpt lat="45.02114" lon="0.38056">
        <ele>60.1</ele>
        <time>2016-10-31T09:02:04Z</time>
      </trkpt>
      <trkpt lat="45.02133" lon="0.38031">
        <ele>58.2</ele>
        <time>2016-10-31T09:02:09Z</time>
      </trkpt>
      <trkpt lat="45.02133" lon="0.38029">
        <ele>58.1</ele>
        <time>2016-10-31T09:02:10Z</time>
      </trkpt>
      <trkpt lat="45.02147" lon="0.38004">
        <ele>56.5</ele>
        <time>2016-10-31T09:02:14Z</time>
      </trkpt>
      <trkpt lat="45.02168" lon="0.38003">
        <ele>55.1</ele>
        <time>2016-10-31T09:02:18Z</time>
      </trkpt>
      <trkpt lat="45.02275" lon="0.38093">
        <ele>57</ele>
        <time>2016-10-31T09:02:43Z</time>
      </trkpt>
      <trkpt lat="45.02326" lon="0.38134">
        <ele>60.5</ele>
        <time>2016-10-31T09:02:55Z</time>
      </trkpt>
      <trkpt lat="45.02394" lon="0.38218">
        <ele>77</ele>
        <time>2016-10-31T09:03:13Z</time>
      </trkpt>
      <trkpt lat="45.02429" lon="0.3817">
        <ele>75.6</ele>
        <time>2016-10-31T09:03:23Z</time>
      </trkpt>
      <trkpt lat="45.02506" lon="0.3811">
        <ele>81.1</ele>
        <time>2016-10-31T09:03:40Z</time>
      </trkpt>
      <trkpt lat="45.02596" lon="0.37967">
        <ele>78.4</ele>
        <time>2016-10-31T09:04:07Z</time>
      </trkpt>
      <trkpt lat="45.02682" lon="0.37848">
        <ele>69</ele>
        <time>2016-10-31T09:04:31Z</time>
      </trkpt>
      <trkpt lat="45.02779" lon="0.37721">
        <ele>65.7</ele>
        <time>2016-10-31T09:04:58Z</time>
      </trkpt>
      <trkpt lat="45.0282" lon="0.37679">
        <ele>66.6</ele>
        <time>2016-10-31T09:05:08Z</time>
      </trkpt>
      <trkpt lat="45.02916" lon="0.37594">
        <ele>69.2</ele>
        <time>2016-10-31T09:05:31Z</time>
      </trkpt>
      <trkpt lat="45.02924" lon="0.37673">
        <ele>79</ele>
        <time>2016-10-31T09:05:42Z</time>
      </trkpt>
      <trkpt lat="45.02949" lon="0.37731">
        <ele>83.7</ele>
        <time>2016-10-31T09:05:52Z</time>
      </trkpt>
      <trkpt lat="45.0298" lon="0.37764">
        <ele>88.3</ele>
        <time>2016-10-31T09:05:59Z</time>
      </trkpt>
      <trkpt lat="45.03035" lon="0.37821">
        <ele>91.5</ele>
        <time>2016-10-31T09:06:13Z</time>
      </trkpt>
      <trkpt lat="45.03053" lon="0.37854">
        <ele>93.3</ele>
        <time>2016-10-31T09:06:19Z</time>
      </trkpt>
      <trkpt lat="45.03118" lon="0.38048">
        <ele>96.7</ele>
        <time>2016-10-31T09:06:49Z</time>
      </trkpt>
      <trkpt lat="45.03157" lon="0.38137">
        <ele>97.3</ele>
        <time>2016-10-31T09:07:04Z</time>
      </trkpt>
      <trkpt lat="45.03209" lon="0.38217">
        <ele>97.1</ele>
        <time>2016-10-31T09:07:19Z</time>
      </trkpt>
      <trkpt lat="45.03235" lon="0.3824">
        <ele>96.4</ele>
        <time>2016-10-31T09:07:26Z</time>
      </trkpt>
      <trkpt lat="45.0332" lon="0.38226">
        <ele>95.5</ele>
        <time>2016-10-31T09:07:43Z</time>
      </trkpt>
      <trkpt lat="45.03345" lon="0.38398">
        <ele>96.1</ele>
        <time>2016-10-31T09:08:08Z</time>
      </trkpt>
      <trkpt lat="45.03385" lon="0.38616">
        <ele>98.3</ele>
        <time>2016-10-31T09:08:39Z</time>
      </trkpt>
      <trkpt lat="45.03425" lon="0.38855">
        <ele>97.4</ele>
        <time>2016-10-31T09:09:14Z</time>
      </trkpt>
      <trkpt lat="45.03448" lon="0.38982">
        <ele>101.4</ele>
        <time>2016-10-31T09:09:33Z</time>
      </trkpt>
      <trkpt lat="45.03466" lon="0.39016">
        <ele>102.7</ele>
        <time>2016-10-31T09:09:39Z</time>
      </trkpt>
      <trkpt lat="45.0354" lon="0.39107">
        <ele>101.5</ele>
        <time>2016-10-31T09:09:58Z</time>
      </trkpt>
      <trkpt lat="45.03638" lon="0.39213">
        <ele>97.7</ele>
        <time>2016-10-31T09:10:23Z</time>
      </trkpt>
      <trkpt lat="45.03774" lon="0.39363">
        <ele>98.3</ele>
        <time>2016-10-31T09:10:58Z</time>
      </trkpt>
      <trkpt lat="45.03847" lon="0.39448">
        <ele>97.1</ele>
        <time>2016-10-31T09:11:17Z</time>
      </trkpt>
      <trkpt lat="45.03848" lon="0.39449">
        <ele>97</ele>
        <time>2016-10-31T09:11:17Z</time>
      </trkpt>
      <trkpt lat="45.03849" lon="0.3945">
        <ele>97</ele>
        <time>2016-10-31T09:11:17Z</time>
      </trkpt>
      <trkpt lat="45.03862" lon="0.39464">
        <ele>96.8</ele>
        <time>2016-10-31T09:11:20Z</time>
      </trkpt>
      <trkpt lat="45.03964" lon="0.3957">
        <ele>102.2</ele>
        <time>2016-10-31T09:11:46Z</time>
      </trkpt>
      <trkpt lat="45.04103" lon="0.39723">
        <ele>100.3</ele>
        <time>2016-10-31T09:12:21Z</time>
      </trkpt>
      <trkpt lat="45.04225" lon="0.39862">
        <ele>102.2</ele>
        <time>2016-10-31T09:12:52Z</time>
      </trkpt>
      <trkpt lat="45.04688" lon="0.4036">
        <ele>113.7</ele>
        <time>2016-10-31T09:14:49Z</time>
      </trkpt>
      <trkpt lat="45.04804" lon="0.4049">
        <ele>105.8</ele>
        <time>2016-10-31T09:15:18Z</time>
      </trkpt>
      <trkpt lat="45.04894" lon="0.40433">
        <ele>106.8</ele>
        <time>2016-10-31T09:15:38Z</time>
      </trkpt>
      <trkpt lat="45.05015" lon="0.40616">
        <ele>81.1</ele>
        <time>2016-10-31T09:16:13Z</time>
      </trkpt>
      <trkpt lat="45.05198" lon="0.40649">
        <ele>62.7</ele>
        <time>2016-10-31T09:16:50Z</time>
      </trkpt>
      <trkpt lat="45.05244" lon="0.40775">
        <ele>61.5</ele>
        <time>2016-10-31T09:17:10Z</time>
      </trkpt>
      <trkpt lat="45.05489" lon="0.41241">
        <ele>66.8</ele>
        <time>2016-10-31T09:18:32Z</time>
      </trkpt>
      <trkpt lat="45.05422" lon="0.41327">
        <ele>68.8</ele>
        <time>2016-10-31T09:18:51Z</time>
      </trkpt>
      <trkpt lat="45.05534" lon="0.41517">
        <ele>68.3</ele>
        <time>2016-10-31T09:19:26Z</time>
      </trkpt>
      <trkpt lat="45.05534" lon="0.41657">
        <ele>68.5</ele>
        <time>2016-10-31T09:19:45Z</time>
      </trkpt>
      <trkpt lat="45.05631" lon="0.41955">
        <ele>73.3</ele>
        <time>2016-10-31T09:20:32Z</time>
      </trkpt>
      <trkpt lat="45.05642" lon="0.42012">
        <ele>74.3</ele>
        <time>2016-10-31T09:20:40Z</time>
      </trkpt>
      <trkpt lat="45.05588" lon="0.42065">
        <ele>74.2</ele>
        <time>2016-10-31T09:20:53Z</time>
      </trkpt>
      <trkpt lat="45.05529" lon="0.42111">
        <ele>76.7</ele>
        <time>2016-10-31T09:21:07Z</time>
      </trkpt>
      <trkpt lat="45.05488" lon="0.42196">
        <ele>78.6</ele>
        <time>2016-10-31T09:21:22Z</time>
      </trkpt>
      <trkpt lat="45.0544" lon="0.42309">
        <ele>79.5</ele>
        <time>2016-10-31T09:21:40Z</time>
      </trkpt>
      <trkpt lat="45.05367" lon="0.42405">
        <ele>82.8</ele>
        <time>2016-10-31T09:22:00Z</time>
      </trkpt>
      <trkpt lat="45.05226" lon="0.42753">
        <ele>96.1</ele>
        <time>2016-10-31T09:22:57Z</time>
      </trkpt>
      <trkpt lat="45.05181" lon="0.4288">
        <ele>97.5</ele>
        <time>2016-10-31T09:23:17Z</time>
      </trkpt>
      <trkpt lat="45.05184" lon="0.42963">
        <ele>100.5</ele>
        <time>2016-10-31T09:23:29Z</time>
      </trkpt>
      <trkpt lat="45.05171" lon="0.43037">
        <ele>103.3</ele>
        <time>2016-10-31T09:23:39Z</time>
      </trkpt>
      <trkpt lat="45.05171" lon="0.43145">
        <ele>108.4</ele>
        <time>2016-10-31T09:23:55Z</time>
      </trkpt>
      <trkpt lat="45.05143" lon="0.43216">
        <ele>119.7</ele>
        <time>2016-10-31T09:24:06Z</time>
      </trkpt>
      <trkpt lat="45.05089" lon="0.43195">
        <ele>129.5</ele>
        <time>2016-10-31T09:24:17Z</time>
      </trkpt>
      <trkpt lat="45.05002" lon="0.43348">
        <ele>142.6</ele>
        <time>2016-10-31T09:24:45Z</time>
      </trkpt>
      <trkpt lat="45.04999" lon="0.43484">
        <ele>143.7</ele>
        <time>2016-10-31T09:25:04Z</time>
      </trkpt>
      <trkpt lat="45.05029" lon="0.43963">
        <ele>157.7</ele>
        <time>2016-10-31T09:26:12Z</time>
      </trkpt>
      <trkpt lat="45.05073" lon="0.44071">
        <ele>160</ele>
        <time>2016-10-31T09:26:30Z</time>
      </trkpt>
      <trkpt lat="45.05062" lon="0.44363">
        <ele>160.5</ele>
        <time>2016-10-31T09:27:11Z</time>
      </trkpt>
      <trkpt lat="45.05075" lon="0.44487">
        <ele>156.6</ele>
        <time>2016-10-31T09:27:29Z</time>
      </trkpt>
      <trkpt lat="45.05107" lon="0.44675">
        <ele>155.6</ele>
        <time>2016-10-31T09:27:56Z</time>
      </trkpt>
      <trkpt lat="45.05046" lon="0.44762">
        <ele>156.4</ele>
        <time>2016-10-31T09:28:14Z</time>
      </trkpt>
      <trkpt lat="45.05008" lon="0.44886">
        <ele>156.7</ele>
        <time>2016-10-31T09:28:33Z</time>
      </trkpt>
      <trkpt lat="45.05029" lon="0.44985">
        <ele>154.5</ele>
        <time>2016-10-31T09:28:47Z</time>
      </trkpt>
      <trkpt lat="45.05011" lon="0.45103">
        <ele>150.7</ele>
        <time>2016-10-31T09:29:04Z</time>
      </trkpt>
      <trkpt lat="45.05013" lon="0.45177">
        <ele>150.8</ele>
        <time>2016-10-31T09:29:15Z</time>
      </trkpt>
      <trkpt lat="45.05067" lon="0.45301">
        <ele>153.3</ele>
        <time>2016-10-31T09:29:35Z</time>
      </trkpt>
      <trkpt lat="45.05084" lon="0.45395">
        <ele>147.2</ele>
        <time>2016-10-31T09:29:49Z</time>
      </trkpt>
      <trkpt lat="45.05105" lon="0.45421">
        <ele>145.1</ele>
        <time>2016-10-31T09:29:55Z</time>
      </trkpt>
      <trkpt lat="45.05176" lon="0.45484">
        <ele>139.1</ele>
        <time>2016-10-31T09:30:12Z</time>
      </trkpt>
      <trkpt lat="45.05237" lon="0.45517">
        <ele>143</ele>
        <time>2016-10-31T09:30:25Z</time>
      </trkpt>
      <trkpt lat="45.05265" lon="0.45572">
        <ele>143.1</ele>
        <time>2016-10-31T09:30:34Z</time>
      </trkpt>
      <trkpt lat="45.05183" lon="0.45606">
        <ele>141.4</ele>
        <time>2016-10-31T09:30:51Z</time>
      </trkpt>
      <trkpt lat="45.05076" lon="0.45766">
        <ele>139.6</ele>
        <time>2016-10-31T09:31:23Z</time>
      </trkpt>
      <trkpt lat="45.05046" lon="0.45777">
        <ele>132.4</ele>
        <time>2016-10-31T09:31:29Z</time>
      </trkpt>
      <trkpt lat="45.05017" lon="0.45749">
        <ele>128.5</ele>
        <time>2016-10-31T09:31:36Z</time>
      </trkpt>
      <trkpt lat="45.04991" lon="0.45759">
        <ele>123.5</ele>
        <time>2016-10-31T09:31:41Z</time>
      </trkpt>
      <trkpt lat="45.05017" lon="0.45826">
        <ele>122.6</ele>
        <time>2016-10-31T09:31:52Z</time>
      </trkpt>
      <trkpt lat="45.05076" lon="0.45947">
        <ele>130.7</ele>
        <time>2016-10-31T09:32:13Z</time>
      </trkpt>
      <trkpt lat="45.05108" lon="0.46364">
        <ele>133.5</ele>
        <time>2016-10-31T09:33:12Z</time>
      </trkpt>
      <trkpt lat="45.05101" lon="0.46443">
        <ele>135.1</ele>
        <time>2016-10-31T09:33:23Z</time>
      </trkpt>
      <trkpt lat="45.05156" lon="0.46783">
        <ele>137.1</ele>
        <time>2016-10-31T09:34:13Z</time>
      </trkpt>
      <trkpt lat="45.0508" lon="0.46857">
        <ele>123.9</ele>
        <time>2016-10-31T09:34:31Z</time>
      </trkpt>
      <trkpt lat="45.05064" lon="0.46893">
        <ele>123.9</ele>
        <time>2016-10-31T09:34:37Z</time>
      </trkpt>
      <trkpt lat="45.05162" lon="0.47053">
        <ele>127</ele>
        <time>2016-10-31T09:35:07Z</time>
      </trkpt>
      <trkpt lat="45.05145" lon="0.47092">
        <ele>127.6</ele>
        <time>2016-10-31T09:35:13Z</time>
      </trkpt>
      <trkpt lat="45.05184" lon="0.47235">
        <ele>135.3</ele>
        <time>2016-10-31T09:35:35Z</time>
      </trkpt>
      <trkpt lat="45.05241" lon="0.47311">
        <ele>140.4</ele>
        <time>2016-10-31T09:35:51Z</time>
      </trkpt>
      <trkpt lat="45.05244" lon="0.47383">
        <ele>145.5</ele>
        <time>2016-10-31T09:36:01Z</time>
      </trkpt>
      <trkpt lat="45.05209" lon="0.47562">
        <ele>160.5</ele>
        <time>2016-10-31T09:36:27Z</time>
      </trkpt>
      <trkpt lat="45.05167" lon="0.47584">
        <ele>164</ele>
        <time>2016-10-31T09:36:36Z</time>
      </trkpt>
      <trkpt lat="45.05088" lon="0.47621">
        <ele>170.5</ele>
        <time>2016-10-31T09:36:53Z</time>
      </trkpt>
      <trkpt lat="45.05039" lon="0.47699">
        <ele>172</ele>
        <time>2016-10-31T09:37:07Z</time>
      </trkpt>
      <trkpt lat="45.04999" lon="0.47694">
        <ele>170.9</ele>
        <time>2016-10-31T09:37:15Z</time>
      </trkpt>
      <trkpt lat="45.05042" lon="0.47749">
        <ele>171.6</ele>
        <time>2016-10-31T09:37:27Z</time>
      </trkpt>
      <trkpt lat="45.0505" lon="0.47847">
        <ele>172.7</ele>
        <time>2016-10-31T09:37:41Z</time>
      </trkpt>
      <trkpt lat="45.05117" lon="0.4795">
        <ele>172</ele>
        <time>2016-10-31T09:38:01Z</time>
      </trkpt>
      <trkpt lat="45.05163" lon="0.47883">
        <ele>171</ele>
        <time>2016-10-31T09:38:14Z</time>
      </trkpt>
      <trkpt lat="45.05162" lon="0.47753">
        <ele>169.4</ele>
        <time>2016-10-31T09:38:32Z</time>
      </trkpt>
      <trkpt lat="45.05167" lon="0.47705">
        <ele>167.9</ele>
        <time>2016-10-31T09:38:39Z</time>
      </trkpt>
      <trkpt lat="45.05238" lon="0.47765">
        <ele>167.8</ele>
        <time>2016-10-31T09:38:56Z</time>
      </trkpt>
      <trkpt lat="45.05324" lon="0.47888">
        <ele>169</ele>
        <time>2016-10-31T09:39:20Z</time>
      </trkpt>
      <trkpt lat="45.0543" lon="0.48195">
        <ele>174.5</ele>
        <time>2016-10-31T09:40:08Z</time>
      </trkpt>
      <trkpt lat="45.05472" lon="0.48284">
        <ele>176.1</ele>
        <time>2016-10-31T09:40:24Z</time>
      </trkpt>
      <trkpt lat="45.05657" lon="0.486">
        <ele>181.5</ele>
        <time>2016-10-31T09:41:22Z</time>
      </trkpt>
      <trkpt lat="45.05727" lon="0.48616">
        <ele>178.9</ele>
        <time>2016-10-31T09:41:36Z</time>
      </trkpt>
      <trkpt lat="45.05805" lon="0.48799">
        <ele>175.8</ele>
        <time>2016-10-31T09:42:06Z</time>
      </trkpt>
      <trkpt lat="45.05902" lon="0.48863">
        <ele>169.5</ele>
        <time>2016-10-31T09:42:27Z</time>
      </trkpt>
      <trkpt lat="45.05913" lon="0.48972">
        <ele>170.3</ele>
        <time>2016-10-31T09:42:43Z</time>
      </trkpt>
      <trkpt lat="45.05945" lon="0.49014">
        <ele>176.5</ele>
        <time>2016-10-31T09:42:52Z</time>
      </trkpt>
      <trkpt lat="45.06072" lon="0.48918">
        <ele>180.6</ele>
        <time>2016-10-31T09:43:21Z</time>
      </trkpt>
      <trkpt lat="45.06162" lon="0.48863">
        <ele>177.6</ele>
        <time>2016-10-31T09:43:40Z</time>
      </trkpt>
      <trkpt lat="45.06244" lon="0.48879">
        <ele>176.5</ele>
        <time>2016-10-31T09:43:57Z</time>
      </trkpt>
      <trkpt lat="45.0652" lon="0.48998">
        <ele>179.3</ele>
        <time>2016-10-31T09:44:55Z</time>
      </trkpt>
      <trkpt lat="45.06688" lon="0.49239">
        <ele>152.8</ele>
        <time>2016-10-31T09:45:43Z</time>
      </trkpt>
      <trkpt lat="45.06822" lon="0.49235">
        <ele>156.5</ele>
        <time>2016-10-31T09:46:09Z</time>
      </trkpt>
      <trkpt lat="45.06897" lon="0.49251">
        <ele>156.8</ele>
        <time>2016-10-31T09:46:25Z</time>
      </trkpt>
      <trkpt lat="45.0694" lon="0.494">
        <ele>145.6</ele>
        <time>2016-10-31T09:46:47Z</time>
      </trkpt>
      <trkpt lat="45.0699" lon="0.49499">
        <ele>126.9</ele>
        <time>2016-10-31T09:47:05Z</time>
      </trkpt>
      <trkpt lat="45.0704" lon="0.49681">
        <ele>109.8</ele>
        <time>2016-10-31T09:47:32Z</time>
      </trkpt>
      <trkpt lat="45.07083" lon="0.49743">
        <ele>105.2</ele>
        <time>2016-10-31T09:47:44Z</time>
      </trkpt>
      <trkpt lat="45.07029" lon="0.49887">
        <ele>113.3</ele>
        <time>2016-10-31T09:48:08Z</time>
      </trkpt>
      <trkpt lat="45.06967" lon="0.49972">
        <ele>117.1</ele>
        <time>2016-10-31T09:48:25Z</time>
      </trkpt>
      <trkpt lat="45.0688" lon="0.50005">
        <ele>119.2</ele>
        <time>2016-10-31T09:48:43Z</time>
      </trkpt>
      <trkpt lat="45.06826" lon="0.49999">
        <ele>124</ele>
        <time>2016-10-31T09:48:54Z</time>
      </trkpt>
      <trkpt lat="45.06757" lon="0.49979">
        <ele>135.1</ele>
        <time>2016-10-31T09:49:08Z</time>
      </trkpt>
      <trkpt lat="45.06701" lon="0.49991">
        <ele>133.4</ele>
        <time>2016-10-31T09:49:19Z</time>
      </trkpt>
      <trkpt lat="45.06614" lon="0.50056">
        <ele>137.3</ele>
        <time>2016-10-31T09:49:39Z</time>
      </trkpt>
      <trkpt lat="45.06537" lon="0.50161">
        <ele>146.1</ele>
        <time>2016-10-31T09:50:00Z</time>
      </trkpt>
      <trkpt lat="45.06414" lon="0.50248">
        <ele>155</ele>
        <time>2016-10-31T09:50:28Z</time>
      </trkpt>
      <trkpt lat="45.06303" lon="0.50389">
        <ele>166</ele>
        <time>2016-10-31T09:50:58Z</time>
      </trkpt>
      <trkpt lat="45.06261" lon="0.50428">
        <ele>166.9</ele>
        <time>2016-10-31T09:51:08Z</time>
      </trkpt>
      <trkpt lat="45.06206" lon="0.50436">
        <ele>168.5</ele>
        <time>2016-10-31T09:51:19Z</time>
      </trkpt>
      <trkpt lat="45.06149" lon="0.504">
        <ele>171</ele>
        <time>2016-10-31T09:51:31Z</time>
      </trkpt>
      <trkpt lat="45.06083" lon="0.50297">
        <ele>176.9</ele>
        <time>2016-10-31T09:51:51Z</time>
      </trkpt>
      <trkpt lat="45.0604" lon="0.50263">
        <ele>181.8</ele>
        <time>2016-10-31T09:52:01Z</time>
      </trkpt>
      <trkpt lat="45.05977" lon="0.50264">
        <ele>187.9</ele>
        <time>2016-10-31T09:52:13Z</time>
      </trkpt>
      <trkpt lat="45.05909" lon="0.50213">
        <ele>196.7</ele>
        <time>2016-10-31T09:52:29Z</time>
      </trkpt>
      <trkpt lat="45.05835" lon="0.50071">
        <ele>198.8</ele>
        <time>2016-10-31T09:52:54Z</time>
      </trkpt>
      <trkpt lat="45.05783" lon="0.50026">
        <ele>194.9</ele>
        <time>2016-10-31T09:53:06Z</time>
      </trkpt>
      <trkpt lat="45.05712" lon="0.50004">
        <ele>191.3</ele>
        <time>2016-10-31T09:53:20Z</time>
      </trkpt>
      <trkpt lat="45.05634" lon="0.49995">
        <ele>189.5</ele>
        <time>2016-10-31T09:53:36Z</time>
      </trkpt>
      <trkpt lat="45.05512" lon="0.50011">
        <ele>189.8</ele>
        <time>2016-10-31T09:54:01Z</time>
      </trkpt>
      <trkpt lat="45.05369" lon="0.5003">
        <ele>189.3</ele>
        <time>2016-10-31T09:54:29Z</time>
      </trkpt>
      <trkpt lat="45.05232" lon="0.50038">
        <ele>191.2</ele>
        <time>2016-10-31T09:54:57Z</time>
      </trkpt>
      <trkpt lat="45.05183" lon="0.50014">
        <ele>191.8</ele>
        <time>2016-10-31T09:55:07Z</time>
      </trkpt>
      <trkpt lat="45.05024" lon="0.50071">
        <ele>192.5</ele>
        <time>2016-10-31T09:55:40Z</time>
      </trkpt>
      <trkpt lat="45.04972" lon="0.50164">
        <ele>190.8</ele>
        <time>2016-10-31T09:55:57Z</time>
      </trkpt>
      <trkpt lat="45.04949" lon="0.50224">
        <ele>192.5</ele>
        <time>2016-10-31T09:56:06Z</time>
      </trkpt>
      <trkpt lat="45.05" lon="0.50355">
        <ele>191.7</ele>
        <time>2016-10-31T09:56:28Z</time>
      </trkpt>
      <trkpt lat="45.04969" lon="0.50444">
        <ele>196.9</ele>
        <time>2016-10-31T09:56:42Z</time>
      </trkpt>
      <trkpt lat="45.04889" lon="0.50618">
        <ele>208.2</ele>
        <time>2016-10-31T09:57:11Z</time>
      </trkpt>
      <trkpt lat="45.04831" lon="0.50657">
        <ele>207.4</ele>
        <time>2016-10-31T09:57:24Z</time>
      </trkpt>
      <trkpt lat="45.04714" lon="0.50693">
        <ele>207.2</ele>
        <time>2016-10-31T09:57:48Z</time>
      </trkpt>
      <trkpt lat="45.04655" lon="0.50767">
        <ele>208.2</ele>
        <time>2016-10-31T09:58:04Z</time>
      </trkpt>
      <trkpt lat="45.04543" lon="0.50774">
        <ele>206.6</ele>
        <time>2016-10-31T09:58:26Z</time>
      </trkpt>
      <trkpt lat="45.04445" lon="0.50947">
        <ele>190.9</ele>
        <time>2016-10-31T09:58:57Z</time>
      </trkpt>
      <trkpt lat="45.04416" lon="0.51156">
        <ele>188.1</ele>
        <time>2016-10-31T09:59:28Z</time>
      </trkpt>
      <trkpt lat="45.04417" lon="0.51262">
        <ele>187.7</ele>
        <time>2016-10-31T09:59:42Z</time>
      </trkpt>
      <trkpt lat="45.04381" lon="0.51339">
        <ele>186.3</ele>
        <time>2016-10-31T09:59:56Z</time>
      </trkpt>
      <trkpt lat="45.04347" lon="0.51406">
        <ele>186.4</ele>
        <time>2016-10-31T10:00:07Z</time>
      </trkpt>
      <trkpt lat="45.04304" lon="0.51437">
        <ele>187.5</ele>
        <time>2016-10-31T10:00:17Z</time>
      </trkpt>
      <trkpt lat="45.04262" lon="0.515">
        <ele>189.3</ele>
        <time>2016-10-31T10:00:29Z</time>
      </trkpt>
      <trkpt lat="45.04073" lon="0.51663">
        <ele>180.5</ele>
        <time>2016-10-31T10:01:13Z</time>
      </trkpt>
      <trkpt lat="45.04028" lon="0.51761">
        <ele>181.7</ele>
        <time>2016-10-31T10:01:30Z</time>
      </trkpt>
      <trkpt lat="45.03997" lon="0.51864">
        <ele>178.8</ele>
        <time>2016-10-31T10:01:46Z</time>
      </trkpt>
      <trkpt lat="45.03956" lon="0.51875">
        <ele>174.7</ele>
        <time>2016-10-31T10:01:54Z</time>
      </trkpt>
      <trkpt lat="45.03922" lon="0.51868">
        <ele>170.4</ele>
        <time>2016-10-31T10:02:01Z</time>
      </trkpt>
      <trkpt lat="45.03799" lon="0.51886">
        <ele>160.8</ele>
        <time>2016-10-31T10:02:26Z</time>
      </trkpt>
      <trkpt lat="45.03654" lon="0.51892">
        <ele>151.2</ele>
        <time>2016-10-31T10:02:55Z</time>
      </trkpt>
      <trkpt lat="45.03604" lon="0.51933">
        <ele>145.4</ele>
        <time>2016-10-31T10:03:06Z</time>
      </trkpt>
      <trkpt lat="45.03534" lon="0.51956">
        <ele>142.3</ele>
        <time>2016-10-31T10:03:21Z</time>
      </trkpt>
      <trkpt lat="45.03453" lon="0.51898">
        <ele>143.3</ele>
        <time>2016-10-31T10:03:39Z</time>
      </trkpt>
      <trkpt lat="45.03403" lon="0.51788">
        <ele>142.4</ele>
        <time>2016-10-31T10:03:57Z</time>
      </trkpt>
      <trkpt lat="45.03305" lon="0.51641">
        <ele>134.4</ele>
        <time>2016-10-31T10:04:26Z</time>
      </trkpt>
      <trkpt lat="45.03136" lon="0.51416">
        <ele>128.7</ele>
        <time>2016-10-31T10:05:12Z</time>
      </trkpt>
      <trkpt lat="45.03041" lon="0.51318">
        <ele>128.4</ele>
        <time>2016-10-31T10:05:36Z</time>
      </trkpt>
      <trkpt lat="45.02983" lon="0.51276">
        <ele>128.8</ele>
        <time>2016-10-31T10:05:49Z</time>
      </trkpt>
      <trkpt lat="45.0293" lon="0.51218">
        <ele>126.3</ele>
        <time>2016-10-31T10:06:02Z</time>
      </trkpt>
      <trkpt lat="45.02866" lon="0.51137">
        <ele>125.7</ele>
        <time>2016-10-31T10:06:20Z</time>
      </trkpt>
      <trkpt lat="45.02825" lon="0.51055">
        <ele>124</ele>
        <time>2016-10-31T10:06:34Z</time>
      </trkpt>
      <trkpt lat="45.02662" lon="0.50817">
        <ele>123</ele>
        <time>2016-10-31T10:07:21Z</time>
      </trkpt>
      <trkpt lat="45.02625" lon="0.508">
        <ele>126.4</ele>
        <time>2016-10-31T10:07:28Z</time>
      </trkpt>
      <trkpt lat="45.0252" lon="0.50832">
        <ele>141.7</ele>
        <time>2016-10-31T10:07:50Z</time>
      </trkpt>
      <trkpt lat="45.02337" lon="0.50869">
        <ele>157.4</ele>
        <time>2016-10-31T10:08:27Z</time>
      </trkpt>
      <trkpt lat="45.0212" lon="0.50879">
        <ele>165.2</ele>
        <time>2016-10-31T10:09:10Z</time>
      </trkpt>
      <trkpt lat="45.0198" lon="0.50778">
        <ele>169.2</ele>
        <time>2016-10-31T10:09:42Z</time>
      </trkpt>
      <trkpt lat="45.01916" lon="0.50695">
        <ele>169.1</ele>
        <time>2016-10-31T10:09:59Z</time>
      </trkpt>
      <trkpt lat="45.01767" lon="0.50671">
        <ele>175.5</ele>
        <time>2016-10-31T10:10:29Z</time>
      </trkpt>
      <trkpt lat="45.01738" lon="0.50612">
        <ele>173.6</ele>
        <time>2016-10-31T10:10:39Z</time>
      </trkpt>
      <trkpt lat="45.01729" lon="0.50552">
        <ele>171.1</ele>
        <time>2016-10-31T10:10:48Z</time>
      </trkpt>
      <trkpt lat="45.01574" lon="0.5062">
        <ele>157.3</ele>
        <time>2016-10-31T10:11:20Z</time>
      </trkpt>
      <trkpt lat="45.01479" lon="0.50657">
        <ele>148.1</ele>
        <time>2016-10-31T10:11:40Z</time>
      </trkpt>
      <trkpt lat="45.01412" lon="0.50719">
        <ele>139.6</ele>
        <time>2016-10-31T10:11:56Z</time>
      </trkpt>
      <trkpt lat="45.01377" lon="0.50766">
        <ele>135</ele>
        <time>2016-10-31T10:12:06Z</time>
      </trkpt>
      <trkpt lat="45.01316" lon="0.50691">
        <ele>127.1</ele>
        <time>2016-10-31T10:12:22Z</time>
      </trkpt>
      <trkpt lat="45.01273" lon="0.50493">
        <ele>131.4</ele>
        <time>2016-10-31T10:12:52Z</time>
      </trkpt>
      <trkpt lat="45.01239" lon="0.50402">
        <ele>136.8</ele>
        <time>2016-10-31T10:13:06Z</time>
      </trkpt>
      <trkpt lat="45.0124" lon="0.50352">
        <ele>142.8</ele>
        <time>2016-10-31T10:13:13Z</time>
      </trkpt>
      <trkpt lat="45.01213" lon="0.50348">
        <ele>137.5</ele>
        <time>2016-10-31T10:13:19Z</time>
      </trkpt>
      <trkpt lat="45.01093" lon="0.50144">
        <ele>127.3</ele>
        <time>2016-10-31T10:13:56Z</time>
      </trkpt>
      <trkpt lat="45.01032" lon="0.5004">
        <ele>122.2</ele>
        <time>2016-10-31T10:14:15Z</time>
      </trkpt>
      <trkpt lat="45.00973" lon="0.50006">
        <ele>115.7</ele>
        <time>2016-10-31T10:14:28Z</time>
      </trkpt>
      <trkpt lat="45.0091" lon="0.50004">
        <ele>106.6</ele>
        <time>2016-10-31T10:14:41Z</time>
      </trkpt>
      <trkpt lat="45.00857" lon="0.50147">
        <ele>98.4</ele>
        <time>2016-10-31T10:15:04Z</time>
      </trkpt>
      <trkpt lat="45.00625" lon="0.50049">
        <ele>88.8</ele>
        <time>2016-10-31T10:15:52Z</time>
      </trkpt>
      <trkpt lat="45.0059" lon="0.50082">
        <ele>89.8</ele>
        <time>2016-10-31T10:16:01Z</time>
      </trkpt>
      <trkpt lat="45.00486" lon="0.50013">
        <ele>96.3</ele>
        <time>2016-10-31T10:16:23Z</time>
      </trkpt>
      <trkpt lat="45.0034" lon="0.50044">
        <ele>113.5</ele>
        <time>2016-10-31T10:16:53Z</time>
      </trkpt>
      <trkpt lat="45.00145" lon="0.50053">
        <ele>125.9</ele>
        <time>2016-10-31T10:17:32Z</time>
      </trkpt>
      <trkpt lat="45.00097" lon="0.49949">
        <ele>133.9</ele>
        <time>2016-10-31T10:17:50Z</time>
      </trkpt>
      <trkpt lat="44.99943" lon="0.49901">
        <ele>144.1</ele>
        <time>2016-10-31T10:18:21Z</time>
      </trkpt>
      <trkpt lat="44.99808" lon="0.49929">
        <ele>155.1</ele>
        <time>2016-10-31T10:18:49Z</time>
      </trkpt>
      <trkpt lat="44.99755" lon="0.49914">
        <ele>159.7</ele>
        <time>2016-10-31T10:18:59Z</time>
      </trkpt>
      <trkpt lat="44.99711" lon="0.4987">
        <ele>161.7</ele>
        <time>2016-10-31T10:19:10Z</time>
      </trkpt>
      <trkpt lat="44.9966" lon="0.49874">
        <ele>163.5</ele>
        <time>2016-10-31T10:19:20Z</time>
      </trkpt>
      <trkpt lat="44.99543" lon="0.49936">
        <ele>163.2</ele>
        <time>2016-10-31T10:19:45Z</time>
      </trkpt>
      <trkpt lat="44.99422" lon="0.4993">
        <ele>168.6</ele>
        <time>2016-10-31T10:20:10Z</time>
      </trkpt>
      <trkpt lat="44.99344" lon="0.49949">
        <ele>172.9</ele>
        <time>2016-10-31T10:20:26Z</time>
      </trkpt>
      <trkpt lat="44.99256" lon="0.49933">
        <ele>174.8</ele>
        <time>2016-10-31T10:20:43Z</time>
      </trkpt>
      <trkpt lat="44.99132" lon="0.49969">
        <ele>169</ele>
        <time>2016-10-31T10:21:09Z</time>
      </trkpt>
      <trkpt lat="44.98941" lon="0.499">
        <ele>173.2</ele>
        <time>2016-10-31T10:21:48Z</time>
      </trkpt>
      <trkpt lat="44.98909" lon="0.49928">
        <ele>170.1</ele>
        <time>2016-10-31T10:21:56Z</time>
      </trkpt>
      <trkpt lat="44.98633" lon="0.49542">
        <ele>180.9</ele>
        <time>2016-10-31T10:23:13Z</time>
      </trkpt>
      <trkpt lat="44.98438" lon="0.49393">
        <ele>181.1</ele>
        <time>2016-10-31T10:23:58Z</time>
      </trkpt>
      <trkpt lat="44.98377" lon="0.493">
        <ele>179.5</ele>
        <time>2016-10-31T10:24:16Z</time>
      </trkpt>
      <trkpt lat="44.98377" lon="0.49174">
        <ele>179</ele>
        <time>2016-10-31T10:24:33Z</time>
      </trkpt>
      <trkpt lat="44.98336" lon="0.49152">
        <ele>179.8</ele>
        <time>2016-10-31T10:24:42Z</time>
      </trkpt>
      <trkpt lat="44.9825" lon="0.49166">
        <ele>181</ele>
        <time>2016-10-31T10:24:59Z</time>
      </trkpt>
      <trkpt lat="44.98178" lon="0.492">
        <ele>176.6</ele>
        <time>2016-10-31T10:25:15Z</time>
      </trkpt>
      <trkpt lat="44.98135" lon="0.49173">
        <ele>172.5</ele>
        <time>2016-10-31T10:25:24Z</time>
      </trkpt>
      <trkpt lat="44.98061" lon="0.49096">
        <ele>165.5</ele>
        <time>2016-10-31T10:25:42Z</time>
      </trkpt>
      <trkpt lat="44.97983" lon="0.49051">
        <ele>162.2</ele>
        <time>2016-10-31T10:25:59Z</time>
      </trkpt>
      <trkpt lat="44.97837" lon="0.4903">
        <ele>160.4</ele>
        <time>2016-10-31T10:26:29Z</time>
      </trkpt>
      <trkpt lat="44.97638" lon="0.48965">
        <ele>150.8</ele>
        <time>2016-10-31T10:27:10Z</time>
      </trkpt>
      <trkpt lat="44.97555" lon="0.48932">
        <ele>152.3</ele>
        <time>2016-10-31T10:27:27Z</time>
      </trkpt>
      <trkpt lat="44.97503" lon="0.48879">
        <ele>156.3</ele>
        <time>2016-10-31T10:27:40Z</time>
      </trkpt>
      <trkpt lat="44.97471" lon="0.48806">
        <ele>156.9</ele>
        <time>2016-10-31T10:27:52Z</time>
      </trkpt>
      <trkpt lat="44.97413" lon="0.4877">
        <ele>158.3</ele>
        <time>2016-10-31T10:28:04Z</time>
      </trkpt>
      <trkpt lat="44.97351" lon="0.48775">
        <ele>155.9</ele>
        <time>2016-10-31T10:28:17Z</time>
      </trkpt>
      <trkpt lat="44.97176" lon="0.48859">
        <ele>152</ele>
        <time>2016-10-31T10:28:54Z</time>
      </trkpt>
      <trkpt lat="44.97021" lon="0.48884">
        <ele>150.8</ele>
        <time>2016-10-31T10:29:25Z</time>
      </trkpt>
      <trkpt lat="44.96852" lon="0.48778">
        <ele>157.6</ele>
        <time>2016-10-31T10:30:02Z</time>
      </trkpt>
      <trkpt lat="44.96665" lon="0.48721">
        <ele>163.1</ele>
        <time>2016-10-31T10:30:40Z</time>
      </trkpt>
      <trkpt lat="44.96613" lon="0.4866">
        <ele>163.4</ele>
        <time>2016-10-31T10:30:54Z</time>
      </trkpt>
      <trkpt lat="44.96562" lon="0.48633">
        <ele>162.6</ele>
        <time>2016-10-31T10:31:05Z</time>
      </trkpt>
      <trkpt lat="44.96502" lon="0.48563">
        <ele>161.7</ele>
        <time>2016-10-31T10:31:20Z</time>
      </trkpt>
      <trkpt lat="44.96429" lon="0.48569">
        <ele>165.3</ele>
        <time>2016-10-31T10:31:35Z</time>
      </trkpt>
      <trkpt lat="44.96247" lon="0.48621">
        <ele>162.3</ele>
        <time>2016-10-31T10:32:12Z</time>
      </trkpt>
      <trkpt lat="44.9623" lon="0.48615">
        <ele>161.4</ele>
        <time>2016-10-31T10:32:16Z</time>
      </trkpt>
      <trkpt lat="44.96227" lon="0.48613">
        <ele>161.2</ele>
        <time>2016-10-31T10:32:16Z</time>
      </trkpt>
      <trkpt lat="44.96226" lon="0.48612">
        <ele>161.2</ele>
        <time>2016-10-31T10:32:17Z</time>
      </trkpt>
      <trkpt lat="44.96225" lon="0.48612">
        <ele>161.1</ele>
        <time>2016-10-31T10:32:17Z</time>
      </trkpt>
      <trkpt lat="44.96194" lon="0.48617">
        <ele>159.7</ele>
        <time>2016-10-31T10:32:23Z</time>
      </trkpt>
      <trkpt lat="44.96141" lon="0.48597">
        <ele>157.9</ele>
        <time>2016-10-31T10:32:34Z</time>
      </trkpt>
      <trkpt lat="44.96114" lon="0.48521">
        <ele>158.4</ele>
        <time>2016-10-31T10:32:46Z</time>
      </trkpt>
      <trkpt lat="44.96083" lon="0.48535">
        <ele>159.3</ele>
        <time>2016-10-31T10:32:52Z</time>
      </trkpt>
      <trkpt lat="44.95997" lon="0.48476">
        <ele>159.9</ele>
        <time>2016-10-31T10:33:12Z</time>
      </trkpt>
      <trkpt lat="44.95897" lon="0.48466">
        <ele>157.9</ele>
        <time>2016-10-31T10:33:32Z</time>
      </trkpt>
      <trkpt lat="44.95837" lon="0.4834">
        <ele>158.9</ele>
        <time>2016-10-31T10:33:53Z</time>
      </trkpt>
      <trkpt lat="44.95782" lon="0.48284">
        <ele>158.9</ele>
        <time>2016-10-31T10:34:07Z</time>
      </trkpt>
      <trkpt lat="44.95638" lon="0.48142">
        <ele>156.8</ele>
        <time>2016-10-31T10:34:42Z</time>
      </trkpt>
      <trkpt lat="44.95517" lon="0.48001">
        <ele>152.6</ele>
        <time>2016-10-31T10:35:13Z</time>
      </trkpt>
      <trkpt lat="44.95438" lon="0.47983">
        <ele>149.9</ele>
        <time>2016-10-31T10:35:29Z</time>
      </trkpt>
      <trkpt lat="44.95268" lon="0.47992">
        <ele>142</ele>
        <time>2016-10-31T10:36:03Z</time>
      </trkpt>
      <trkpt lat="44.95182" lon="0.48032">
        <ele>139.5</ele>
        <time>2016-10-31T10:36:21Z</time>
      </trkpt>
      <trkpt lat="44.94935" lon="0.47979">
        <ele>132.1</ele>
        <time>2016-10-31T10:37:11Z</time>
      </trkpt>
      <trkpt lat="44.94874" lon="0.47996">
        <ele>130.4</ele>
        <time>2016-10-31T10:37:24Z</time>
      </trkpt>
      <trkpt lat="44.94826" lon="0.48025">
        <ele>129</ele>
        <time>2016-10-31T10:37:34Z</time>
      </trkpt>
      <trkpt lat="44.94773" lon="0.48011">
        <ele>128.9</ele>
        <time>2016-10-31T10:37:45Z</time>
      </trkpt>
      <trkpt lat="44.9469" lon="0.47968">
        <ele>129.9</ele>
        <time>2016-10-31T10:38:03Z</time>
      </trkpt>
      <trkpt lat="44.9462" lon="0.47957">
        <ele>126.3</ele>
        <time>2016-10-31T10:38:17Z</time>
      </trkpt>
      <trkpt lat="44.94516" lon="0.47999">
        <ele>116.5</ele>
        <time>2016-10-31T10:38:39Z</time>
      </trkpt>
      <trkpt lat="44.94435" lon="0.4804">
        <ele>115</ele>
        <time>2016-10-31T10:38:56Z</time>
      </trkpt>
      <trkpt lat="44.9423" lon="0.48057">
        <ele>106.8</ele>
        <time>2016-10-31T10:39:37Z</time>
      </trkpt>
      <trkpt lat="44.94076" lon="0.47958">
        <ele>99.3</ele>
        <time>2016-10-31T10:40:11Z</time>
      </trkpt>
      <trkpt lat="44.93947" lon="0.47976">
        <ele>96.1</ele>
        <time>2016-10-31T10:40:37Z</time>
      </trkpt>
      <trkpt lat="44.93828" lon="0.47953">
        <ele>96.9</ele>
        <time>2016-10-31T10:41:01Z</time>
      </trkpt>
      <trkpt lat="44.93661" lon="0.47899">
        <ele>92.4</ele>
        <time>2016-10-31T10:41:35Z</time>
      </trkpt>
      <trkpt lat="44.93626" lon="0.47767">
        <ele>101.7</ele>
        <time>2016-10-31T10:41:55Z</time>
      </trkpt>
      <trkpt lat="44.9358" lon="0.47728">
        <ele>97.4</ele>
        <time>2016-10-31T10:42:06Z</time>
      </trkpt>
      <trkpt lat="44.93451" lon="0.47707">
        <ele>94.3</ele>
        <time>2016-10-31T10:42:32Z</time>
      </trkpt>
      <trkpt lat="44.93312" lon="0.47658">
        <ele>89.8</ele>
        <time>2016-10-31T10:43:01Z</time>
      </trkpt>
      <trkpt lat="44.93213" lon="0.47587">
        <ele>91</ele>
        <time>2016-10-31T10:43:23Z</time>
      </trkpt>
      <trkpt lat="44.93131" lon="0.47518">
        <ele>94.9</ele>
        <time>2016-10-31T10:43:42Z</time>
      </trkpt>
      <trkpt lat="44.92925" lon="0.47528">
        <ele>86.9</ele>
        <time>2016-10-31T10:44:23Z</time>
      </trkpt>
      <trkpt lat="44.92826" lon="0.47541">
        <ele>84.9</ele>
        <time>2016-10-31T10:44:43Z</time>
      </trkpt>
      <trkpt lat="44.92763" lon="0.47601">
        <ele>76.3</ele>
        <time>2016-10-31T10:44:58Z</time>
      </trkpt>
      <trkpt lat="44.92703" lon="0.47666">
        <ele>73.7</ele>
        <time>2016-10-31T10:45:13Z</time>
      </trkpt>
      <trkpt lat="44.92656" lon="0.4768">
        <ele>74.4</ele>
        <time>2016-10-31T10:45:23Z</time>
      </trkpt>
      <trkpt lat="44.92622" lon="0.47646">
        <ele>79.9</ele>
        <time>2016-10-31T10:45:31Z</time>
      </trkpt>
      <trkpt lat="44.92589" lon="0.47526">
        <ele>95.4</ele>
        <time>2016-10-31T10:45:49Z</time>
      </trkpt>
      <trkpt lat="44.92532" lon="0.47465">
        <ele>95.1</ele>
        <time>2016-10-31T10:46:04Z</time>
      </trkpt>
      <trkpt lat="44.92444" lon="0.47432">
        <ele>89.5</ele>
        <time>2016-10-31T10:46:22Z</time>
      </trkpt>
      <trkpt lat="44.9226" lon="0.47394">
        <ele>79</ele>
        <time>2016-10-31T10:46:59Z</time>
      </trkpt>
      <trkpt lat="44.92187" lon="0.47315">
        <ele>78.6</ele>
        <time>2016-10-31T10:47:18Z</time>
      </trkpt>
      <trkpt lat="44.92149" lon="0.47316">
        <ele>76.9</ele>
        <time>2016-10-31T10:47:25Z</time>
      </trkpt>
      <trkpt lat="44.91959" lon="0.47354">
        <ele>73.5</ele>
        <time>2016-10-31T10:48:04Z</time>
      </trkpt>
      <trkpt lat="44.91911" lon="0.47325">
        <ele>76</ele>
        <time>2016-10-31T10:48:14Z</time>
      </trkpt>
      <trkpt lat="44.91852" lon="0.47277">
        <ele>78.1</ele>
        <time>2016-10-31T10:48:28Z</time>
      </trkpt>
      <trkpt lat="44.91829" lon="0.47221">
        <ele>81.1</ele>
        <time>2016-10-31T10:48:37Z</time>
      </trkpt>
      <trkpt lat="44.91799" lon="0.47139">
        <ele>85.8</ele>
        <time>2016-10-31T10:48:50Z</time>
      </trkpt>
      <trkpt lat="44.91751" lon="0.47055">
        <ele>90.2</ele>
        <time>2016-10-31T10:49:05Z</time>
      </trkpt>
      <trkpt lat="44.91698" lon="0.47016">
        <ele>86.7</ele>
        <time>2016-10-31T10:49:17Z</time>
      </trkpt>
      <trkpt lat="44.91613" lon="0.46981">
        <ele>76.3</ele>
        <time>2016-10-31T10:49:35Z</time>
      </trkpt>
      <trkpt lat="44.91517" lon="0.46968">
        <ele>69.2</ele>
        <time>2016-10-31T10:49:54Z</time>
      </trkpt>
      <trkpt lat="44.91462" lon="0.46931">
        <ele>69.3</ele>
        <time>2016-10-31T10:50:06Z</time>
      </trkpt>
      <trkpt lat="44.91396" lon="0.46933">
        <ele>66.7</ele>
        <time>2016-10-31T10:50:20Z</time>
      </trkpt>
      <trkpt lat="44.91321" lon="0.46905">
        <ele>67.5</ele>
        <time>2016-10-31T10:50:35Z</time>
      </trkpt>
      <trkpt lat="44.9125" lon="0.46906">
        <ele>64.7</ele>
        <time>2016-10-31T10:50:49Z</time>
      </trkpt>
      <trkpt lat="44.91166" lon="0.46892">
        <ele>63.1</ele>
        <time>2016-10-31T10:51:06Z</time>
      </trkpt>
      <trkpt lat="44.91008" lon="0.46877">
        <ele>59.1</ele>
        <time>2016-10-31T10:51:38Z</time>
      </trkpt>
      <trkpt lat="44.9089" lon="0.46813">
        <ele>59.5</ele>
        <time>2016-10-31T10:52:03Z</time>
      </trkpt>
      <trkpt lat="44.90664" lon="0.46754">
        <ele>61.6</ele>
        <time>2016-10-31T10:52:49Z</time>
      </trkpt>
      <trkpt lat="44.90604" lon="0.46705">
        <ele>62.5</ele>
        <time>2016-10-31T10:53:03Z</time>
      </trkpt>
      <trkpt lat="44.90455" lon="0.46506">
        <ele>66.9</ele>
        <time>2016-10-31T10:53:44Z</time>
      </trkpt>
      <trkpt lat="44.90182" lon="0.46347">
        <ele>62.9</ele>
        <time>2016-10-31T10:54:43Z</time>
      </trkpt>
      <trkpt lat="44.90096" lon="0.46236">
        <ele>65</ele>
        <time>2016-10-31T10:55:07Z</time>
      </trkpt>
      <trkpt lat="44.90059" lon="0.46208">
        <ele>65.1</ele>
        <time>2016-10-31T10:55:15Z</time>
      </trkpt>
      <trkpt lat="44.89777" lon="0.46129">
        <ele>60.5</ele>
        <time>2016-10-31T10:56:12Z</time>
      </trkpt>
      <trkpt lat="44.89714" lon="0.46098">
        <ele>63</ele>
        <time>2016-10-31T10:56:26Z</time>
      </trkpt>
      <trkpt lat="44.89632" lon="0.46094">
        <ele>60.5</ele>
        <time>2016-10-31T10:56:42Z</time>
      </trkpt>
      <trkpt lat="44.89443" lon="0.46115">
        <ele>54</ele>
        <time>2016-10-31T10:57:20Z</time>
      </trkpt>
      <trkpt lat="44.89394" lon="0.46096">
        <ele>55.5</ele>
        <time>2016-10-31T10:57:30Z</time>
      </trkpt>
      <trkpt lat="44.89349" lon="0.46062">
        <ele>57.7</ele>
        <time>2016-10-31T10:57:41Z</time>
      </trkpt>
      <trkpt lat="44.89095" lon="0.45814">
        <ele>61</ele>
        <time>2016-10-31T10:58:42Z</time>
      </trkpt>
      <trkpt lat="44.88827" lon="0.45571">
        <ele>64</ele>
        <time>2016-10-31T10:59:46Z</time>
      </trkpt>
      <trkpt lat="44.88778" lon="0.45577">
        <ele>61.8</ele>
        <time>2016-10-31T10:59:56Z</time>
      </trkpt>
      <trkpt lat="44.88706" lon="0.45519">
        <ele>63.8</ele>
        <time>2016-10-31T11:00:13Z</time>
      </trkpt>
      <trkpt lat="44.88662" lon="0.45517">
        <ele>60.2</ele>
        <time>2016-10-31T11:00:21Z</time>
      </trkpt>
      <trkpt lat="44.88569" lon="0.45525">
        <ele>55.2</ele>
        <time>2016-10-31T11:00:40Z</time>
      </trkpt>
      <trkpt lat="44.88494" lon="0.45507">
        <ele>59.8</ele>
        <time>2016-10-31T11:00:55Z</time>
      </trkpt>
      <trkpt lat="44.88411" lon="0.45473">
        <ele>58.3</ele>
        <time>2016-10-31T11:01:12Z</time>
      </trkpt>
      <trkpt lat="44.88365" lon="0.45483">
        <ele>54.6</ele>
        <time>2016-10-31T11:01:22Z</time>
      </trkpt>
      <trkpt lat="44.8835" lon="0.45458">
        <ele>56.1</ele>
        <time>2016-10-31T11:01:27Z</time>
      </trkpt>
      <trkpt lat="44.8835" lon="0.4543">
        <ele>58.8</ele>
        <time>2016-10-31T11:01:31Z</time>
      </trkpt>
      <trkpt lat="44.88136" lon="0.4541">
        <ele>57.8</ele>
        <time>2016-10-31T11:02:14Z</time>
      </trkpt>
      <trkpt lat="44.87921" lon="0.45383">
        <ele>53.7</ele>
        <time>2016-10-31T11:02:57Z</time>
      </trkpt>
      <trkpt lat="44.87708" lon="0.45403">
        <ele>46.7</ele>
        <time>2016-10-31T11:03:39Z</time>
      </trkpt>
      <trkpt lat="44.87595" lon="0.45441">
        <ele>42.5</ele>
        <time>2016-10-31T11:04:03Z</time>
      </trkpt>
      <trkpt lat="44.87456" lon="0.45511">
        <ele>44.1</ele>
        <time>2016-10-31T11:04:32Z</time>
      </trkpt>
      <trkpt lat="44.87225" lon="0.45596">
        <ele>47.5</ele>
        <time>2016-10-31T11:05:20Z</time>
      </trkpt>
      <trkpt lat="44.87031" lon="0.45642">
        <ele>49.1</ele>
        <time>2016-10-31T11:05:59Z</time>
      </trkpt>
      <trkpt lat="44.86819" lon="0.45686">
        <ele>51</ele>
        <time>2016-10-31T11:06:42Z</time>
      </trkpt>
      <trkpt lat="44.8675" lon="0.45735">
        <ele>51.1</ele>
        <time>2016-10-31T11:06:58Z</time>
      </trkpt>
      <trkpt lat="44.86501" lon="0.46084">
        <ele>38</ele>
        <time>2016-10-31T11:08:08Z</time>
      </trkpt>
      <trkpt lat="44.86444" lon="0.46165">
        <ele>36.4</ele>
        <time>2016-10-31T11:08:24Z</time>
      </trkpt>
      <trkpt lat="44.86421" lon="0.46152">
        <ele>36.6</ele>
        <time>2016-10-31T11:08:29Z</time>
      </trkpt>
      <trkpt lat="44.8642" lon="0.46203">
        <ele>35.2</ele>
        <time>2016-10-31T11:08:36Z</time>
      </trkpt>
      <trkpt lat="44.86243" lon="0.46452">
        <ele>32.5</ele>
        <time>2016-10-31T11:09:26Z</time>
      </trkpt>
      <trkpt lat="44.86128" lon="0.46558">
        <ele>33.4</ele>
        <time>2016-10-31T11:09:54Z</time>
      </trkpt>
    </trkseg>
  </trk>
</gpx>